La Joya, New Mexico
Current Conditions -  °F | °C
As of 5:15 PM on Friday 19 Dec 2014 (Local Time) from KE80 Reporting Station
Clear Clear  
Wind Chill: 33°   Ceiling: Unl
Heat Index: 37°   Visibility: 10mi
Dew Point: 25°   Wind: 6mph
Humidity: 62%   Direction: 360°N
Pressure: 30.17"   Gusts: NA
Location:  34.35°N, 106.84°W
Report Text: KE80 200015Z AUTO 36005KT 10SM CLR 03/M04 A3017 RMK AO2 T00291037
Loading
Personal Weather Stations






























Interactive Weather Map New forecast layout! Learn more

10-Day Weather Forecast

Advertisements
Track Severe Weather on mobile